Time;durP1;ratioP1;P1;durP2;ratioP2;P2;SDS_P1;SDS_P2;PMS_P1;PMS_P2;Temp;Humidity;BMP_temperature;BMP_pressure;BME280_temperature;BME280_humidity;BME280_pressure;Samples;Min_cycle;Max_cycle;Signal;HPM_P1;HPM_P2
2024/03/08 00:00:12;;;;;;;41.42;19.23;;;-1.80;99.90;;;-148.53;100.00;63986.66;5030668;28;20038;-86
2024/03/08 00:02:42;;;;;;;39.40;19.85;;;-1.90;99.90;;;-148.53;100.00;63986.66;5027314;28;20029;-86
2024/03/08 00:05:08;;;;;;;42.92;19.45;;;-1.80;99.90;;;-148.53;100.00;63986.66;5028729;28;20092;-86
2024/03/08 00:07:38;;;;;;;45.05;18.95;;;-1.90;99.90;;;-148.53;100.00;63986.66;5037299;28;20486;-86
2024/03/08 00:10:10;;;;;;;44.70;19.77;;;-1.80;99.90;;;-148.53;100.00;63986.66;5030971;28;20041;-85
2024/03/08 00:12:41;;;;;;;46.72;19.23;;;-1.90;99.90;;;-148.53;100.00;63986.66;5035636;28;20106;-85
2024/03/08 00:15:15;;;;;;;41.38;19.58;;;-1.80;99.90;;;-148.53;100.00;63986.66;5036085;28;20061;-86
2024/03/08 00:17:42;;;;;;;43.88;20.10;;;-1.80;99.90;;;-148.53;100.00;63986.66;5029579;28;20112;-85
2024/03/08 00:20:08;;;;;;;42.67;19.92;;;-1.90;99.90;;;-148.53;100.00;63986.66;5024853;28;20034;-85
2024/03/08 00:22:35;;;;;;;45.53;19.58;;;-1.90;99.90;;;-148.53;100.00;63986.66;5025129;28;20042;-85
2024/03/08 00:25:02;;;;;;;51.42;21.02;;;-1.90;99.90;;;-148.53;100.00;63986.66;5028371;28;20037;-84
2024/03/08 00:27:30;;;;;;;46.83;20.27;;;-1.90;99.90;;;-148.53;100.00;63986.66;5041482;28;20047;-84
2024/03/08 00:30:00;;;;;;;43.70;20.63;;;-2.00;99.90;;;-148.53;100.00;63986.66;5037209;28;21627;-84
2024/03/08 00:32:27;;;;;;;45.40;19.55;;;-2.00;99.90;;;-148.53;100.00;63986.66;5035851;28;20049;-83
2024/03/08 00:34:57;;;;;;;38.38;18.70;;;-2.10;99.90;;;-148.53;100.00;63986.66;5035896;28;20095;-85
2024/03/08 00:37:22;;;;;;;43.63;19.63;;;-2.10;99.90;;;-148.53;100.00;63986.66;5018145;28;20045;-85
2024/03/08 00:39:49;;;;;;;42.30;19.50;;;-2.10;99.90;;;-148.53;100.00;63986.66;5021818;28;20040;-85
2024/03/08 00:42:16;;;;;;;41.80;19.65;;;-2.20;99.90;;;-148.53;100.00;63986.66;5009185;28;20044;-86
2024/03/08 00:44:42;;;;;;;42.42;19.17;;;-2.10;99.90;;;-148.53;100.00;63986.66;5022511;28;20100;-85
2024/03/08 00:47:08;;;;;;;47.70;21.88;;;-2.10;99.90;;;-148.53;100.00;63986.66;5030405;28;20037;-86
2024/03/08 00:49:34;;;;;;;50.10;21.30;;;-2.10;99.90;;;-148.53;100.00;63986.66;5028964;28;20044;-85
2024/03/08 00:51:59;;;;;;;43.50;19.40;;;-2.10;99.90;;;-148.53;100.00;63986.66;5022003;28;20068;-85
2024/03/08 00:54:26;;;;;;;45.10;20.10;;;-2.10;99.90;;;-148.53;100.00;63986.66;5013558;28;20045;-85
2024/03/08 00:56:51;;;;;;;48.15;21.40;;;-2.00;99.90;;;-148.53;100.00;63986.66;5023556;28;20037;-84
2024/03/08 00:59:17;;;;;;;44.63;19.95;;;-1.90;99.90;;;-148.53;100.00;63986.66;5022116;28;20041;-85
2024/03/08 01:01:43;;;;;;;44.65;19.58;;;-2.00;99.90;;;-148.53;100.00;63986.66;5028217;28;20042;-85
2024/03/08 01:04:10;;;;;;;41.08;18.90;;;-1.90;99.90;;;-148.53;100.00;63986.66;5019413;28;20057;-85
2024/03/08 01:06:37;;;;;;;46.70;20.48;;;-1.90;99.90;;;-148.53;100.00;63986.66;5024588;28;20046;-85
2024/03/08 01:09:02;;;;;;;39.75;19.40;;;-1.90;99.90;;;-148.53;100.00;63986.66;5040224;28;20041;-85
2024/03/08 01:11:28;;;;;;;47.60;19.42;;;-1.90;99.90;;;-148.53;100.00;63986.66;5017511;28;20448;-84
2024/03/08 01:13:54;;;;;;;41.00;19.13;;;-2.00;99.90;;;-148.53;100.00;63986.66;5048121;28;20042;-85
2024/03/08 01:16:21;;;;;;;41.63;18.58;;;-2.00;99.90;;;-148.53;100.00;63986.66;5019565;28;20441;-84
2024/03/08 01:18:47;;;;;;;43.00;19.45;;;-2.00;99.90;;;-148.53;100.00;63986.66;5030532;28;20033;-82
2024/03/08 01:21:13;;;;;;;40.85;18.33;;;-2.00;99.90;;;-148.53;100.00;63986.66;5026428;28;20042;-83
2024/03/08 01:23:39;;;;;;;42.08;19.42;;;-2.00;99.90;;;-148.53;100.00;63986.66;5029180;28;20037;-84
2024/03/08 01:26:06;;;;;;;44.58;18.98;;;-1.90;99.90;;;-148.53;100.00;63986.66;5028984;28;20030;-83
2024/03/08 01:28:34;;;;;;;44.47;19.52;;;-1.80;99.90;;;-148.53;100.00;63986.66;5044362;28;20065;-83
2024/03/08 01:30:59;;;;;;;43.00;19.02;;;-1.80;99.90;;;-148.53;100.00;63986.66;5020356;28;20041;-84
2024/03/08 01:33:26;;;;;;;44.47;19.67;;;-1.80;99.90;;;-148.53;100.00;63986.66;5027225;28;20389;-84
2024/03/08 01:35:53;;;;;;;41.78;19.58;;;-1.80;99.90;;;-148.53;100.00;63986.66;5029312;28;20102;-84
2024/03/08 01:38:21;;;;;;;43.22;19.67;;;-1.90;99.90;;;-148.53;100.00;63986.66;5008603;28;20060;-83
2024/03/08 01:40:47;;;;;;;48.63;19.90;;;-1.90;99.90;;;-148.53;100.00;63986.66;5021254;28;20057;-84
2024/03/08 01:43:20;;;;;;;39.97;19.42;;;-1.90;99.90;;;-148.53;100.00;63986.66;5032755;28;20463;-83
2024/03/08 01:45:47;;;;;;;42.22;18.83;;;-2.10;99.90;;;-148.53;100.00;63986.66;5030644;28;20046;-84
2024/03/08 01:48:14;;;;;;;42.22;19.48;;;-2.10;99.90;;;-148.53;100.00;63986.66;5021169;28;20165;-84
2024/03/08 01:50:41;;;;;;;37.95;18.45;;;-2.20;99.90;;;-148.53;100.00;63986.66;5032223;28;20370;-84
2024/03/08 01:53:10;;;;;;;40.05;18.90;;;-2.30;99.90;;;-148.53;100.00;63986.66;5046652;28;20041;-84
2024/03/08 01:55:36;;;;;;;44.55;20.20;;;-2.30;99.90;;;-148.53;100.00;63986.66;5022542;28;20041;-84
2024/03/08 01:58:05;;;;;;;43.47;19.23;;;-2.20;99.90;;;-148.53;100.00;63986.66;5019439;28;20393;-84
2024/03/08 02:00:34;;;;;;;42.92;19.17;;;-2.20;99.90;;;-148.53;100.00;63986.66;5025596;28;20126;-83
2024/03/08 02:03:00;;;;;;;39.58;18.17;;;-2.10;99.90;;;-148.53;100.00;63986.66;5027338;28;20135;-84
2024/03/08 02:05:27;;;;;;;40.72;18.50;;;-2.10;99.90;;;-148.53;100.00;63986.66;5027347;28;20048;-84
2024/03/08 02:07:53;;;;;;;43.97;20.48;;;-2.10;99.90;;;-148.53;100.00;63986.66;5026528;28;20373;-85
2024/03/08 02:10:19;;;;;;;46.40;20.13;;;-2.10;99.90;;;-148.53;100.00;63986.66;5040146;28;20319;-84
2024/03/08 02:12:47;;;;;;;48.28;20.52;;;-2.10;99.90;;;-148.53;100.00;63986.66;5017695;28;20045;-85
2024/03/08 02:15:12;;;;;;;46.50;20.02;;;-2.10;99.90;;;-148.53;100.00;63986.66;5021519;28;20108;-84
2024/03/08 02:17:38;;;;;;;43.67;19.55;;;-2.00;99.90;;;-148.53;100.00;63986.66;5030211;28;20113;-83
2024/03/08 02:20:04;;;;;;;42.58;19.02;;;-2.00;99.90;;;-148.53;100.00;63986.66;5019838;28;20037;-83
2024/03/08 02:22:34;;;;;;;44.47;19.33;;;-2.00;99.90;;;-148.53;100.00;63986.66;5030978;28;20053;-85
2024/03/08 02:25:03;;;;;;;49.30;19.33;;;-2.00;99.90;;;-148.53;100.00;63986.66;5015223;28;20058;-83
2024/03/08 02:27:32;;;;;;;44.90;19.15;;;-2.00;99.90;;;-148.53;100.00;63986.66;5022380;28;20456;-84
2024/03/08 02:29:59;;;;;;;48.40;20.42;;;-1.90;99.90;;;-148.53;100.00;63986.66;5017764;28;20101;-84
2024/03/08 02:32:25;;;;;;;50.15;20.58;;;-2.00;99.90;;;-148.53;100.00;63986.66;5014855;28;20088;-83
2024/03/08 02:34:51;;;;;;;46.15;20.52;;;-2.00;99.90;;;-148.53;100.00;63986.66;5044238;28;20084;-83
2024/03/08 02:37:17;;;;;;;43.70;20.25;;;-2.00;99.90;;;-148.53;100.00;63986.66;5024016;28;20132;-84
2024/03/08 02:39:43;;;;;;;46.35;20.15;;;-2.00;99.90;;;-148.53;100.00;63986.66;5017654;28;20093;-83
2024/03/08 02:42:09;;;;;;;47.53;20.35;;;-2.00;99.90;;;-148.53;100.00;63986.66;5022451;28;20172;-84
2024/03/08 02:44:35;;;;;;;44.47;19.73;;;-2.00;99.90;;;-148.53;100.00;63986.66;5031396;28;20041;-83
2024/03/08 02:47:00;;;;;;;44.75;20.08;;;-2.10;99.90;;;-148.53;100.00;63986.66;5018280;28;20068;-83
2024/03/08 02:49:27;;;;;;;46.92;20.92;;;-2.10;99.90;;;-148.53;100.00;63986.66;5022078;28;20047;-83
2024/03/08 02:51:53;;;;;;;47.17;19.35;;;-2.20;99.90;;;-148.53;100.00;63986.66;5030696;28;20401;-83
2024/03/08 02:54:20;;;;;;;46.72;20.40;;;-2.20;99.90;;;-148.53;100.00;63986.66;5032079;28;20037;-84
2024/03/08 02:56:46;;;;;;;47.88;20.08;;;-2.30;99.90;;;-148.53;100.00;63986.66;5015254;28;20418;-84
2024/03/08 02:59:12;;;;;;;44.70;19.58;;;-2.30;99.90;;;-148.53;100.00;63986.66;5014422;28;20029;-83
2024/03/08 03:01:39;;;;;;;47.83;19.25;;;-2.30;99.90;;;-148.53;100.00;63986.66;5020289;28;20494;-84
2024/03/08 03:04:05;;;;;;;41.53;18.63;;;-2.30;99.90;;;-148.53;100.00;63986.66;5017132;28;20559;-84
2024/03/08 03:06:31;;;;;;;46.33;20.65;;;-2.40;99.90;;;-148.53;100.00;63986.66;5025020;28;20057;-84
2024/03/08 03:08:57;;;;;;;44.50;20.33;;;-2.40;99.90;;;-148.53;100.00;63986.66;5019413;28;20045;-84
2024/03/08 03:11:23;;;;;;;43.33;19.92;;;-2.40;99.90;;;-148.53;100.00;63986.66;5027366;28;20036;-85
2024/03/08 03:13:49;;;;;;;41.95;19.48;;;-2.40;99.90;;;-148.53;100.00;63986.66;5018590;28;20026;-85
2024/03/08 03:16:22;;;;;;;41.95;19.15;;;-2.40;99.90;;;-148.53;100.00;63986.66;5025920;28;20362;-83
2024/03/08 03:18:47;;;;;;;46.08;19.50;;;-2.40;99.90;;;-148.53;100.00;63986.66;5029492;28;20542;-84
2024/03/08 03:21:14;;;;;;;40.63;19.25;;;-2.40;99.90;;;-148.53;100.00;63986.66;5040530;28;20045;-82
2024/03/08 03:23:40;;;;;;;43.97;19.60;;;-2.50;99.90;;;-148.53;100.00;63986.66;5022775;28;20037;-83
2024/03/08 03:26:12;;;;;;;44.35;20.35;;;-2.50;99.90;;;-148.53;100.00;63986.66;5028467;28;20041;-83
2024/03/08 03:28:39;;;;;;;46.47;19.65;;;-2.40;99.90;;;-148.53;100.00;63986.66;5032179;28;20037;-84
2024/03/08 03:31:07;;;;;;;46.75;19.75;;;-2.50;99.90;;;-148.53;100.00;63986.66;5025107;28;20037;-84
2024/03/08 03:33:34;;;;;;;39.80;19.10;;;-2.60;99.90;;;-148.53;100.00;63986.66;5019287;28;20422;-84
2024/03/08 03:36:00;;;;;;;43.77;19.30;;;-2.60;99.90;;;-148.53;100.00;63986.66;5024468;28;20037;-84
2024/03/08 03:38:27;;;;;;;41.75;19.38;;;-2.70;99.90;;;-148.53;100.00;63986.66;5025354;28;20398;-83
2024/03/08 03:40:57;;;;;;;43.40;19.65;;;-2.80;99.90;;;-148.53;100.00;63986.66;5017285;28;20033;-84
2024/03/08 03:43:23;;;;;;;46.70;19.08;;;-2.80;99.90;;;-148.53;100.00;63986.66;5015646;28;20437;-83
2024/03/08 03:45:49;;;;;;;42.13;19.30;;;-2.80;99.90;;;-148.53;100.00;63986.66;5039453;28;20120;-84
2024/03/08 03:48:15;;;;;;;49.20;19.92;;;-2.70;99.90;;;-148.53;100.00;63986.66;5020480;28;20061;-83
2024/03/08 03:50:40;;;;;;;48.55;20.83;;;-2.80;99.90;;;-148.53;100.00;63986.66;5020988;28;20029;-83
2024/03/08 03:53:07;;;;;;;49.25;20.08;;;-2.80;99.90;;;-148.53;100.00;63986.66;5013792;28;20264;-83
2024/03/08 03:55:33;;;;;;;53.70;20.40;;;-2.80;99.90;;;-148.53;100.00;63986.66;5019195;28;20030;-84
2024/03/08 03:58:00;;;;;;;48.20;21.20;;;-2.80;99.90;;;-148.53;100.00;63986.66;5035293;28;20052;-83
2024/03/08 04:00:27;;;;;;;47.45;20.52;;;-2.90;99.90;;;-148.53;100.00;63986.66;5012984;28;20042;-83
2024/03/08 04:02:53;;;;;;;46.92;20.88;;;-2.90;99.90;;;-148.53;100.00;63986.66;5026919;28;20045;-84
2024/03/08 04:05:19;;;;;;;49.08;20.08;;;-2.90;99.90;;;-148.53;100.00;63986.66;5013155;28;20053;-83
2024/03/08 04:07:44;;;;;;;50.63;20.30;;;-3.00;99.90;;;-148.53;100.00;63986.66;5033148;28;20375;-83
2024/03/08 04:10:11;;;;;;;54.20;21.25;;;-2.90;99.90;;;-148.53;100.00;63986.66;5021623;28;20037;-83
2024/03/08 04:12:38;;;;;;;50.77;21.20;;;-2.90;99.90;;;-148.53;100.00;63986.66;5019093;28;20045;-83
2024/03/08 04:15:10;;;;;;;50.58;21.50;;;-3.00;99.90;;;-148.53;100.00;63986.66;5028546;28;20527;-83
2024/03/08 04:17:37;;;;;;;50.78;21.33;;;-3.00;99.90;;;-148.53;100.00;63986.66;5028813;28;20069;-82
2024/03/08 04:20:09;;;;;;;53.28;21.48;;;-3.10;99.90;;;-148.53;100.00;63986.66;5012956;28;20037;-83
2024/03/08 04:22:39;;;;;;;50.17;20.30;;;-3.10;99.90;;;-148.53;100.00;63986.66;5017168;28;20084;-83
2024/03/08 04:25:06;;;;;;;42.15;20.05;;;-3.20;99.90;;;-148.53;100.00;63986.66;5016615;28;20030;-82
2024/03/08 04:27:35;;;;;;;52.78;20.25;;;-3.10;99.90;;;-148.53;100.00;63986.66;5025030;28;20036;-83
2024/03/08 04:30:03;;;;;;;50.05;20.70;;;-3.00;99.90;;;-148.53;100.00;63986.66;5015442;28;20033;-80
2024/03/08 04:32:29;;;;;;;52.25;21.65;;;-3.00;99.90;;;-148.53;100.00;63986.66;5020040;28;20548;-82
2024/03/08 04:34:56;;;;;;;52.30;22.17;;;-3.00;99.90;;;-148.53;100.00;63986.66;5016062;28;20128;-83
2024/03/08 04:37:25;;;;;;;53.88;22.75;;;-3.10;99.90;;;-148.53;100.00;63986.66;5024178;28;20041;-82
2024/03/08 04:39:50;;;;;;;46.55;20.75;;;-3.10;99.90;;;-148.53;100.00;63986.66;5016072;28;20034;-81
2024/03/08 04:42:17;;;;;;;51.00;22.17;;;-3.10;99.90;;;-148.53;100.00;63986.66;5014906;28;20455;-81
2024/03/08 04:44:43;;;;;;;50.60;20.42;;;-3.10;99.90;;;-148.53;100.00;63986.66;5028370;28;20041;-81
2024/03/08 04:47:10;;;;;;;50.92;22.10;;;-3.00;99.90;;;-148.53;100.00;63986.66;5021697;28;20075;-82
2024/03/08 04:49:36;;;;;;;52.08;20.92;;;-2.90;99.90;;;-148.53;100.00;63986.66;5024540;28;20547;-81
2024/03/08 04:52:03;;;;;;;58.28;23.33;;;-3.00;99.90;;;-148.53;100.00;63986.66;5018912;28;20041;-83
2024/03/08 04:54:32;;;;;;;51.30;21.60;;;-2.90;99.90;;;-148.53;100.00;63986.66;5029755;28;20375;-78
2024/03/08 04:57:00;;;;;;;53.13;22.42;;;-2.90;99.90;;;-148.53;100.00;63986.66;5026337;28;20211;-81
2024/03/08 04:59:27;;;;;;;53.50;22.77;;;-2.90;99.90;;;-148.53;100.00;63986.66;5028747;28;20438;-81
2024/03/08 05:01:53;;;;;;;56.95;23.52;;;-2.90;99.90;;;-148.53;100.00;63986.66;5033074;28;20087;-82
2024/03/08 05:04:18;;;;;;;53.40;22.98;;;-2.90;99.90;;;-148.53;100.00;63986.66;5030217;28;20448;-82
2024/03/08 05:06:44;;;;;;;55.65;24.02;;;-2.90;99.90;;;-148.53;100.00;63986.66;5027118;28;20103;-83
2024/03/08 05:09:16;;;;;;;57.25;24.17;;;-2.90;99.90;;;-148.53;100.00;63986.66;5028338;28;20088;-82
2024/03/08 05:11:46;;;;;;;57.33;23.45;;;-2.80;99.90;;;-148.53;100.00;63986.66;5035239;28;20057;-81
2024/03/08 05:14:16;;;;;;;62.05;24.45;;;-2.80;99.90;;;-148.53;100.00;63986.66;5031612;28;20045;-81
2024/03/08 05:16:48;;;;;;;54.20;24.35;;;-2.80;99.90;;;-148.53;100.00;63986.66;5023506;28;20041;-83
2024/03/08 05:19:20;;;;;;;60.08;24.33;;;-2.80;99.90;;;-148.53;100.00;63986.66;5033965;28;20045;-83
2024/03/08 05:21:50;;;;;;;56.58;23.45;;;-2.70;99.90;;;-148.53;100.00;63986.66;5026946;28;20391;-84
2024/03/08 05:24:16;;;;;;;59.88;24.33;;;-2.80;99.90;;;-148.53;100.00;63986.66;5026705;28;20061;-84
2024/03/08 05:26:43;;;;;;;62.38;25.25;;;-2.70;99.90;;;-148.53;100.00;63986.66;5034008;28;20052;-84
2024/03/08 05:29:09;;;;;;;67.50;26.30;;;-2.70;99.90;;;-148.53;100.00;63986.66;5040846;28;20083;-85
2024/03/08 05:31:56;;;;;;;60.60;25.02;;;-2.70;99.90;;;-148.53;100.00;63986.66;5039434;28;20532;-84
2024/03/08 05:34:22;;;;;;;56.58;24.42;;;-2.70;99.90;;;-148.53;100.00;63986.66;5031265;28;20045;-83
2024/03/08 05:36:51;;;;;;;68.03;25.48;;;-2.70;99.90;;;-148.53;100.00;63986.66;5041676;28;21081;-82
2024/03/08 05:39:18;;;;;;;59.88;24.30;;;-2.70;99.90;;;-148.53;100.00;63986.66;5043308;28;20048;-83
2024/03/08 05:41:45;;;;;;;65.47;25.35;;;-2.70;99.90;;;-148.53;100.00;63986.66;5033722;28;20068;-84
2024/03/08 05:44:12;;;;;;;59.60;24.17;;;-2.80;99.90;;;-148.53;100.00;63986.66;5024641;28;20120;-83
2024/03/08 05:46:39;;;;;;;69.20;27.30;;;-2.80;99.90;;;-148.53;100.00;63986.66;5028974;28;20038;-81
2024/03/08 05:49:06;;;;;;;66.15;27.00;;;-2.80;99.90;;;-148.53;100.00;63986.66;5032970;28;20084;-84
2024/03/08 05:51:36;;;;;;;63.28;26.25;;;-2.60;99.90;;;-148.53;100.00;63986.66;5043568;28;20689;-82
2024/03/08 05:54:08;;;;;;;62.03;25.80;;;-2.70;99.90;;;-148.53;100.00;63986.66;5040475;28;20029;-79
2024/03/08 05:56:35;;;;;;;64.65;26.38;;;-2.60;99.90;;;-148.53;100.00;63986.66;5023366;28;20434;-83
2024/03/08 05:59:01;;;;;;;62.15;27.25;;;-2.50;99.90;;;-148.53;100.00;63986.66;5041659;28;20095;-80
2024/03/08 06:01:28;;;;;;;64.57;26.55;;;-2.50;99.90;;;-148.53;100.00;63986.66;5041967;28;20038;-84
2024/03/08 06:03:58;;;;;;;61.92;26.38;;;-2.50;99.90;;;-148.53;100.00;63986.66;5044032;28;20128;-81
2024/03/08 06:06:24;;;;;;;71.00;27.90;;;-2.40;99.90;;;-148.53;100.00;63986.66;5041765;28;20124;-82
2024/03/08 06:08:51;;;;;;;69.70;28.05;;;-2.30;99.90;;;-148.53;100.00;63986.66;5036355;28;20120;-82
2024/03/08 06:11:18;;;;;;;61.22;26.08;;;-2.20;99.90;;;-148.53;100.00;63986.66;5034872;28;20400;-81
2024/03/08 06:13:45;;;;;;;67.90;27.60;;;-2.20;99.90;;;-148.53;100.00;63986.66;5039349;28;20125;-81
2024/03/08 06:16:11;;;;;;;68.53;28.35;;;-2.10;99.90;;;-148.53;100.00;63986.66;5030942;28;20046;-80
2024/03/08 06:18:37;;;;;;;67.05;28.45;;;-2.10;99.90;;;-148.53;100.00;63986.66;5024102;28;20037;-80
2024/03/08 06:21:07;;;;;;;71.53;29.25;;;-2.00;99.90;;;-148.53;100.00;63986.66;5032534;28;20118;-81
2024/03/08 06:23:38;;;;;;;74.35;29.30;;;-2.00;99.90;;;-148.53;100.00;63986.66;5026956;28;20053;-79
2024/03/08 06:26:05;;;;;;;71.10;28.88;;;-1.90;99.90;;;-148.53;100.00;63986.66;5015377;28;20485;-79
2024/03/08 06:28:32;;;;;;;67.72;29.67;;;-1.90;99.90;;;-148.53;100.00;63986.66;5036020;28;20041;-80
2024/03/08 06:31:02;;;;;;;72.50;28.75;;;-1.80;99.90;;;-148.53;100.00;63986.66;5028337;28;20117;-80
2024/03/08 06:33:28;;;;;;;71.15;28.73;;;-1.80;99.90;;;-148.53;100.00;63986.66;5038076;28;20060;-79
2024/03/08 06:35:58;;;;;;;72.38;29.42;;;-1.60;99.90;;;-148.53;100.00;63986.66;5040693;28;20151;-81
2024/03/08 06:38:26;;;;;;;74.32;31.27;;;-1.50;99.90;;;-148.53;100.00;63986.66;5034295;28;20057;-80
2024/03/08 06:40:54;;;;;;;80.32;31.42;;;-1.40;99.90;;;-148.53;100.00;63986.66;5036902;28;20094;-81
2024/03/08 06:43:20;;;;;;;72.25;29.77;;;-1.30;99.90;;;-148.53;100.00;63986.66;5034334;28;20150;-80
2024/03/08 06:45:48;;;;;;;75.15;31.90;;;-1.20;99.90;;;-148.53;100.00;63986.66;5036473;28;20045;-80
2024/03/08 06:48:17;;;;;;;;;;;-1.10;99.90;;;-148.53;100.00;63986.66;5037118;28;20095;-80
2024/03/08 06:50:47;;;;;;;66.25;29.65;;;-0.90;99.90;;;-148.53;100.00;63986.66;5035339;28;19917;-79
2024/03/08 06:53:16;;;;;;;69.55;29.65;;;-0.80;99.90;;;-148.53;100.00;63986.66;5032958;28;20533;-80
2024/03/08 06:55:44;;;;;;;73.55;31.27;;;-0.70;99.90;;;-148.53;100.00;63986.66;5038639;28;20103;-78
2024/03/08 06:58:10;;;;;;;68.28;30.48;;;-0.50;99.90;;;-148.53;100.00;63986.66;5042619;28;20041;-79
2024/03/08 07:00:37;;;;;;;73.47;31.83;;;-0.40;99.90;;;-148.53;100.00;63986.66;5038664;28;20080;-79
2024/03/08 07:03:03;;;;;;;72.38;30.02;;;-0.30;99.90;;;-148.53;100.00;63986.66;5036817;28;20116;-81
2024/03/08 07:05:30;;;;;;;65.28;30.45;;;-0.20;99.90;;;-148.53;100.00;63986.66;5035894;28;20041;-81
2024/03/08 07:07:56;;;;;;;65.57;29.65;;;-0.10;99.90;;;-148.53;100.00;63986.66;5029024;28;20050;-80
2024/03/08 07:10:24;;;;;;;57.88;27.00;;;0.10;99.90;;;-148.53;100.00;63986.66;5027366;28;20033;-83
2024/03/08 07:12:51;;;;;;;49.80;25.55;;;0.30;99.90;;;-148.53;100.00;63986.66;5029967;28;20033;-81
2024/03/08 07:15:19;;;;;;;55.50;25.00;;;0.30;99.90;;;-148.53;100.00;63986.66;5033359;28;20099;-81
2024/03/08 07:17:45;;;;;;;48.22;24.75;;;0.50;99.90;;;-148.53;100.00;63986.66;5038260;28;20304;-81
2024/03/08 07:20:13;;;;;;;44.60;23.85;;;0.60;99.90;;;-148.53;100.00;63986.66;5038739;28;20033;-82
2024/03/08 07:22:39;;;;;;;50.78;24.83;;;0.70;99.90;;;-148.53;100.00;63986.66;5043777;28;20043;-82
2024/03/08 07:25:20;;;;;;;47.67;22.73;;;0.80;99.90;;;-148.53;100.00;63986.66;5027932;28;20061;-82
2024/03/08 07:27:54;;;;;;;44.33;22.40;;;0.90;99.90;;;-148.53;100.00;63986.66;5027944;28;20068;-82
2024/03/08 07:33:13;;;;;;;44.33;23.00;;;1.20;99.90;;;-148.53;100.00;63986.66;5029534;28;20037;-82
2024/03/08 07:35:40;;;;;;;42.22;22.33;;;1.30;99.90;;;-148.53;100.00;63986.66;5024556;28;20095;-81
2024/03/08 07:38:10;;;;;;;37.13;21.25;;;1.30;99.90;;;-148.53;100.00;63986.66;5026649;28;20047;-80
2024/03/08 07:40:40;;;;;;;42.20;22.27;;;1.40;99.90;;;-148.53;100.00;63986.66;5038268;28;20029;-82
2024/03/08 07:43:11;;;;;;;43.15;21.88;;;1.50;99.90;;;-148.53;100.00;63986.66;5049485;28;20044;-81
2024/03/08 07:45:37;;;;;;;45.38;23.35;;;1.50;99.90;;;-148.53;100.00;63986.66;5037783;28;20037;-82
2024/03/08 07:48:09;;;;;;;42.47;23.48;;;1.60;99.90;;;-148.53;100.00;63986.66;5054078;28;20064;-83
2024/03/08 07:50:41;;;;;;;43.40;21.45;;;1.80;99.90;;;-148.53;100.00;63986.66;5024820;28;20541;-83
2024/03/08 07:53:07;;;;;;;40.17;20.90;;;1.90;99.90;;;-148.53;100.00;63986.66;5029003;28;20060;-82
2024/03/08 07:55:35;;;;;;;43.83;20.83;;;1.90;99.90;;;-148.53;100.00;63986.66;5029274;28;20541;-82
2024/03/08 07:58:01;;;;;;;43.40;22.60;;;2.00;99.90;;;-148.53;100.00;63986.66;5027890;28;20405;-83
2024/03/08 08:00:31;;;;;;;42.00;23.13;;;2.10;99.90;;;-148.53;100.00;63986.66;5026379;28;20081;-82
2024/03/08 08:02:57;;;;;;;41.45;21.95;;;2.20;99.90;;;-148.53;100.00;63986.66;5022396;28;20038;-85
2024/03/08 08:05:23;;;;;;;39.67;22.40;;;2.30;99.90;;;-148.53;100.00;63986.66;5023764;28;20058;-82
2024/03/08 08:07:49;;;;;;;44.60;23.52;;;2.30;99.90;;;-148.53;100.00;63986.66;5026975;28;20391;-87
2024/03/08 08:10:21;;;;;;;37.10;20.85;;;2.30;99.90;;;-148.53;100.00;63986.66;5027320;28;20504;-83
2024/03/08 08:12:53;;;;;;;45.88;22.35;;;2.30;99.90;;;-148.53;100.00;63986.66;5024515;28;20029;-81
2024/03/08 08:15:20;;;;;;;40.85;22.85;;;2.50;99.90;;;-148.53;100.00;63986.66;5039137;28;20045;-83
2024/03/08 08:17:47;;;;;;;39.63;20.63;;;2.60;99.90;;;-148.53;100.00;63986.66;5043939;28;20032;-87
2024/03/08 08:20:13;;;;;;;40.92;22.50;;;2.70;99.90;;;-148.53;100.00;63986.66;5040992;28;20053;-85
2024/03/08 08:22:40;;;;;;;44.60;22.30;;;2.70;99.90;;;-148.53;100.00;63986.66;5036155;28;20472;-85
2024/03/08 08:25:07;;;;;;;38.03;21.70;;;2.80;99.90;;;-148.53;100.00;63986.66;5040538;28;20036;-84
2024/03/08 08:27:33;;;;;;;38.45;22.98;;;2.90;99.90;;;-148.53;100.00;63986.66;5040163;28;20496;-85
2024/03/08 08:29:59;;;;;;;40.88;22.70;;;2.90;99.90;;;-148.53;100.00;63986.66;5053631;28;20037;-83
2024/03/08 08:32:25;;;;;;;42.00;22.02;;;3.10;99.90;;;-148.53;100.00;63986.66;5036700;28;20064;-85
2024/03/08 08:34:50;;;;;;;42.30;22.38;;;3.20;99.90;;;-148.53;100.00;63986.66;5036525;28;20495;-86
2024/03/08 08:37:16;;;;;;;40.25;21.90;;;3.20;99.90;;;-148.53;100.00;63986.66;5035254;28;20045;-88
2024/03/08 08:39:42;;;;;;;38.45;21.67;;;3.30;99.90;;;-148.53;100.00;63986.66;5030048;28;20048;-88
2024/03/08 08:42:09;;;;;;;42.30;22.67;;;3.50;99.90;;;-148.53;100.00;63986.66;5026729;28;20036;-88
2024/03/08 08:44:35;;;;;;;38.05;22.15;;;3.60;99.90;;;-148.53;100.00;63986.66;5037120;28;20046;-88
2024/03/08 08:47:03;;;;;;;40.92;21.70;;;3.70;99.90;;;-148.53;100.00;63986.66;5034552;28;20436;-86
2024/03/08 08:49:30;;;;;;;40.38;22.67;;;3.80;99.90;;;-148.53;100.00;63986.66;5034317;28;20116;-88
2024/03/08 08:51:58;;;;;;;41.42;22.48;;;3.90;99.90;;;-148.53;100.00;63986.66;5020446;28;20033;-87
2024/03/08 08:54:24;;;;;;;40.63;22.05;;;4.00;99.90;;;-148.53;100.00;63986.66;5026194;28;20493;-86
2024/03/08 08:56:51;;;;;;;42.67;22.48;;;4.20;99.90;;;-148.53;100.00;63986.66;5045917;28;20116;-88
2024/03/08 08:59:20;;;;;;;39.70;22.10;;;4.30;99.90;;;-148.53;100.00;63986.66;5039142;28;20053;-88
2024/03/08 09:01:50;;;;;;;38.85;22.30;;;4.50;99.90;;;-148.53;100.00;63986.66;5033432;28;20029;-87
2024/03/08 09:04:16;;;;;;;38.15;22.33;;;4.60;99.90;;;-148.53;100.00;63986.66;5031625;28;20560;-89
2024/03/08 09:06:42;;;;;;;36.90;22.23;;;4.80;99.90;;;-148.53;100.00;63986.66;5039560;28;20464;-88
2024/03/08 09:09:13;;;;;;;41.17;22.75;;;4.90;99.90;;;-148.53;100.00;63986.66;5035745;28;20037;-87
2024/03/08 09:11:41;;;;;;;38.55;22.63;;;5.10;99.90;;;-148.53;100.00;63986.66;5020630;28;20049;-86
2024/03/08 09:14:08;;;;;;;37.15;22.70;;;5.40;99.90;;;-148.53;100.00;63986.66;5038993;28;20038;-88
2024/03/08 09:16:34;;;;;;;35.40;21.10;;;5.70;99.90;;;-148.53;100.00;63986.66;5050185;28;20037;-89
2024/03/08 09:19:00;;;;;;;33.53;20.80;;;5.70;99.90;;;-148.53;100.00;63986.66;5051968;28;20068;-86
2024/03/08 09:21:27;;;;;;;33.67;20.83;;;5.80;99.90;;;-148.53;100.00;63986.66;5037968;28;20060;-90
2024/03/08 09:23:53;;;;;;;35.47;21.00;;;6.00;99.90;;;-148.53;100.00;63986.66;5044010;28;20093;-91
2024/03/08 09:26:19;;;;;;;36.30;21.48;;;6.20;99.90;;;-148.53;100.00;63986.66;5047266;28;20042;-87
2024/03/08 09:28:45;;;;;;;37.42;20.92;;;6.20;99.90;;;-148.53;100.00;63986.66;5036729;28;20067;-87
2024/03/08 09:31:12;;;;;;;35.30;21.52;;;6.00;99.90;;;-148.53;100.00;63986.66;5042522;28;20034;-86
2024/03/08 09:33:39;;;;;;;39.85;21.25;;;6.00;99.90;;;-148.53;100.00;63986.66;5041460;28;20033;-88
2024/03/08 09:36:07;;;;;;;34.33;20.88;;;6.30;99.90;;;-148.53;100.00;63986.66;5028666;28;20037;-87
2024/03/08 09:38:34;;;;;;;34.95;20.73;;;6.50;99.90;;;-148.53;100.00;63986.66;5033904;28;20045;-86
2024/03/08 09:41:01;;;;;;;35.28;20.67;;;6.30;99.90;;;-148.53;100.00;63986.66;5038396;28;20038;-88
2024/03/08 09:43:28;;;;;;;34.95;20.83;;;6.30;99.90;;;-148.53;100.00;63986.66;5027004;28;20046;-87
2024/03/08 09:45:55;;;;;;;36.75;20.33;;;6.50;99.90;;;-148.53;100.00;63986.66;5033793;28;20038;-87
2024/03/08 09:48:23;;;;;;;36.70;21.25;;;6.40;99.90;;;-148.53;100.00;63986.66;5048681;28;20100;-87
2024/03/08 09:50:49;;;;;;;36.03;20.98;;;6.50;99.90;;;-148.53;100.00;63986.66;5028530;28;20076;-85
2024/03/08 09:53:16;;;;;;;33.50;19.95;;;6.50;99.90;;;-148.53;100.00;63986.66;5031122;28;20033;-87